createdAt,value
2022-08-27T00:00:03.181Z,25.20
2022-08-27T00:05:08.504Z,31.33
2022-08-27T00:10:16.182Z,28.13
2022-08-27T00:15:20.152Z,40.40
2022-08-27T00:20:26.096Z,24.65
2022-08-27T00:25:31.453Z,28.67
2022-08-27T00:30:35.826Z,28.40
2022-08-27T00:35:39.876Z,29.13
2022-08-27T00:40:45.777Z,26.45
2022-08-27T00:50:55.866Z,30.00
2022-08-27T00:56:10.183Z,31.75
2022-08-27T01:01:17.225Z,32.08
2022-08-27T01:06:22.552Z,42.83
2022-08-27T01:11:28.039Z,34.63
2022-08-27T01:16:39.638Z,31.92
2022-08-27T01:21:47.957Z,33.30
2022-08-27T01:26:53.452Z,37.97
2022-08-27T01:32:01.085Z,38.47
2022-08-27T01:37:06.752Z,33.55
2022-08-27T01:42:16.891Z,29.20
2022-08-27T01:47:22.839Z,32.58
2022-08-27T01:52:34.728Z,41.00
2022-08-27T01:57:40.415Z,37.03
2022-08-27T02:02:45.171Z,29.52
2022-08-27T02:07:49.303Z,31.08
2022-08-27T02:12:54.780Z,39.15
2022-08-27T02:17:58.807Z,25.95
2022-08-27T02:23:04.568Z,24.13
2022-08-27T02:33:14.783Z,25.52
2022-08-27T02:38:20.128Z,25.20
2022-08-27T02:43:25.732Z,26.25
2022-08-27T02:48:32.220Z,26.13
2022-08-27T02:53:37.530Z,24.80
2022-08-27T02:58:43.844Z,34.30
2022-08-27T03:03:47.989Z,30.05
2022-08-27T03:08:52.752Z,35.20
2022-08-27T03:13:59.116Z,30.83
2022-08-27T03:19:03.175Z,23.63
2022-08-27T03:24:11.344Z,26.92
2022-08-27T03:29:20.011Z,31.73
2022-08-27T03:34:24.047Z,25.63
2022-08-27T03:39:28.063Z,35.53
2022-08-27T03:44:33.592Z,36.08
2022-08-27T03:49:37.667Z,29.73
2022-08-27T03:54:42.178Z,33.72
2022-08-27T03:59:47.544Z,27.65
2022-08-27T04:04:51.776Z,35.22
2022-08-27T04:09:55.794Z,29.02
2022-08-27T04:15:01.239Z,27.92
2022-08-27T04:20:31.777Z,35.97
2022-08-27T04:25:30.536Z,38.95
2022-08-27T04:30:35.994Z,39.67
2022-08-27T04:35:40.004Z,39.75
2022-08-27T04:41:01.656Z,33.83
2022-08-27T04:46:07.679Z,28.15
2022-08-27T04:51:11.792Z,30.95
2022-08-27T04:56:21.855Z,27.50
2022-08-27T05:01:29.849Z,47.95
2022-08-27T05:06:34.711Z,38.08
2022-08-27T05:11:39.374Z,35.30
2022-08-27T05:16:44.750Z,46.95
2022-08-27T05:21:50.171Z,38.35
2022-08-27T05:26:54.530Z,33.85
2022-08-27T05:31:59.919Z,46.05
2022-08-27T05:37:05.131Z,38.42
2022-08-27T05:42:09.159Z,30.90
2022-08-27T05:47:14.650Z,42.50
2022-08-27T05:52:19.192Z,39.67
2022-08-27T05:57:23.168Z,40.17
2022-08-27T06:02:29.148Z,42.05
2022-08-27T06:07:35.082Z,42.55
2022-08-27T06:12:39.215Z,40.08
2022-08-27T06:17:44.630Z,33.22
2022-08-27T06:27:52.347Z,35.83
2022-08-27T06:32:57.718Z,36.10
2022-08-27T06:38:01.799Z,33.75
2022-08-27T06:43:05.847Z,39.92
2022-08-27T06:48:11.371Z,41.45
2022-08-27T06:53:15.833Z,36.13
2022-08-27T06:58:20.674Z,38.15
2022-08-27T07:03:26.095Z,46.97
2022-08-27T07:08:30.340Z,45.25
2022-08-27T07:13:34.353Z,44.13
2022-08-27T07:18:40.747Z,37.63
2022-08-27T07:23:45.399Z,48.47
2022-08-27T07:28:50.185Z,47.85
2022-08-27T07:33:55.847Z,46.33
2022-08-27T07:39:01.277Z,49.28
2022-08-27T07:44:26.052Z,51.35
2022-08-27T07:49:35.154Z,50.37
2022-08-27T07:54:39.111Z,51.53
2022-08-27T07:59:42.963Z,52.92
2022-08-27T08:04:48.279Z,41.72
2022-08-27T08:09:52.270Z,48.38
2022-08-27T08:14:58.112Z,47.20
2022-08-27T08:20:27.457Z,48.40
2022-08-27T08:25:28.487Z,44.10
2022-08-27T08:30:38.639Z,56.05
2022-08-27T08:35:44.111Z,49.90
2022-08-27T08:40:50.805Z,54.83
2022-08-27T08:45:56.084Z,53.63
2022-08-27T08:51:06.487Z,50.55
2022-08-27T08:56:12.884Z,59.67
2022-08-27T09:01:18.646Z,48.30
2022-08-27T09:06:31.205Z,50.75
2022-08-27T09:11:40.818Z,60.88
2022-08-27T09:16:44.887Z,59.85
2022-08-27T09:21:57.243Z,53.22
2022-08-27T09:27:01.528Z,66.45
2022-08-27T09:32:08.716Z,58.28
2022-08-27T09:37:16.663Z,57.80
2022-08-27T09:42:27.904Z,58.90
2022-08-27T09:47:32.061Z,46.50
2022-08-27T09:52:40.932Z,41.60
2022-08-27T09:57:44.960Z,59.17
2022-08-27T10:02:54.008Z,59.47
2022-08-27T10:08:02.619Z,55.25
2022-08-27T10:13:10.321Z,45.70
2022-08-27T10:18:19.987Z,54.10
2022-08-27T10:23:33.230Z,41.08
2022-08-27T10:28:51.556Z,57.60
2022-08-27T10:34:12.319Z,32.88
2022-08-27T10:39:28.675Z,46.72
2022-08-27T10:44:42.511Z,50.97
2022-08-27T10:49:51.151Z,57.67
2022-08-27T10:55:01.001Z,55.00
2022-08-27T11:00:11.747Z,58.30
2022-08-27T11:05:19.633Z,68.60
2022-08-27T11:10:29.694Z,58.67
2022-08-27T11:15:36.863Z,57.08
2022-08-27T11:20:45.102Z,58.33
2022-08-27T11:25:54.206Z,63.42
2022-08-27T11:31:02.418Z,72.47
2022-08-27T11:36:32.459Z,66.60
2022-08-27T11:42:03.484Z,67.30
2022-08-27T11:47:13.317Z,64.40
2022-08-27T11:52:29.157Z,65.25
2022-08-27T11:57:36.357Z,65.97
2022-08-27T12:02:40.703Z,84.50
2022-08-27T12:07:47.733Z,74.38
2022-08-27T12:13:01.086Z,68.55
2022-08-27T12:18:10.470Z,62.75
2022-08-27T12:23:38.443Z,76.97
2022-08-27T12:28:45.351Z,77.28
2022-08-27T12:33:51.612Z,78.47
2022-08-27T12:38:58.146Z,68.57
2022-08-27T12:44:09.119Z,70.45
2022-08-27T12:49:38.643Z,70.15
2022-08-27T12:54:47.311Z,74.60
2022-08-27T13:00:04.482Z,64.18
2022-08-27T13:05:10.212Z,66.22
2022-08-27T13:10:16.972Z,54.85
2022-08-27T13:15:22.517Z,82.13
2022-08-27T13:20:27.770Z,63.67
2022-08-27T13:25:34.548Z,58.15
2022-08-27T13:30:42.211Z,52.03
2022-08-27T13:35:47.556Z,62.40
2022-08-27T13:40:59.864Z,59.75
2022-08-27T13:46:07.920Z,57.65
2022-08-27T13:51:13.330Z,66.60
2022-08-27T13:56:29.143Z,73.35
2022-08-27T14:01:34.654Z,58.03
2022-08-27T14:06:43.284Z,70.82
2022-08-27T14:11:48.098Z,58.47
2022-08-27T14:17:00.298Z,60.35
2022-08-27T14:22:04.609Z,61.07
2022-08-27T14:27:11.442Z,59.30
2022-08-27T14:32:17.208Z,59.65
2022-08-27T14:37:21.638Z,72.65
2022-08-27T14:42:25.620Z,59.17
2022-08-27T14:47:34.332Z,65.35
2022-08-27T14:52:39.432Z,50.35
2022-08-27T14:57:43.479Z,45.08
2022-08-27T15:07:53.951Z,56.67
2022-08-27T15:12:58.282Z,55.75
2022-08-27T15:18:03.703Z,57.45
2022-08-27T15:23:07.915Z,74.32
2022-08-27T15:28:12.130Z,74.40
2022-08-27T15:33:17.735Z,52.88
2022-08-27T15:38:21.731Z,72.63
2022-08-27T15:43:26.822Z,57.50
2022-08-27T15:48:32.356Z,53.30
2022-08-27T15:53:37.020Z,72.88
2022-08-27T16:03:47.220Z,53.38
2022-08-27T16:08:51.481Z,63.00
2022-08-27T16:13:55.974Z,71.00
2022-08-27T16:19:02.572Z,65.28
2022-08-27T16:24:09.322Z,69.03
2022-08-27T16:29:15.088Z,58.03
2022-08-27T16:34:23.474Z,67.57
2022-08-27T16:39:31.743Z,69.43
2022-08-27T16:44:37.081Z,60.55
2022-08-27T16:50:00.046Z,74.82
2022-08-27T16:55:03.959Z,54.72
2022-08-27T17:00:09.398Z,65.28
2022-08-27T17:05:34.282Z,69.88
2022-08-27T17:15:43.476Z,64.20
2022-08-27T17:20:49.075Z,59.17
2022-08-27T17:25:53.075Z,68.95
2022-08-27T17:30:57.656Z,75.88
2022-08-27T17:36:03.396Z,67.93
2022-08-27T17:41:12.548Z,75.20
2022-08-27T17:46:16.708Z,58.17
2022-08-27T17:51:22.571Z,59.97
2022-08-27T17:56:26.907Z,60.92
2022-08-27T18:01:32.956Z,59.27
2022-08-27T18:06:39.169Z,62.05
2022-08-27T18:11:44.479Z,65.07
2022-08-27T18:21:53.739Z,58.13
2022-08-27T18:26:57.788Z,44.58
2022-08-27T18:32:01.857Z,53.50
2022-08-27T18:37:07.725Z,61.70
2022-08-27T18:42:12.091Z,81.55
2022-08-27T18:47:16.156Z,77.43
2022-08-27T18:52:22.086Z,75.78
2022-08-27T18:57:26.593Z,59.38
2022-08-27T19:02:30.867Z,77.63
2022-08-27T19:07:36.662Z,59.10
2022-08-27T19:17:47.205Z,59.75
2022-08-27T19:22:52.504Z,65.47
2022-08-27T19:27:57.099Z,70.07
2022-08-27T19:33:01.119Z,60.38
2022-08-27T19:38:06.658Z,70.55
2022-08-27T19:43:13.094Z,79.03
2022-08-27T19:48:17.178Z,76.38
2022-08-27T19:53:22.563Z,59.92
2022-08-27T19:58:26.561Z,70.95
2022-08-27T20:03:30.596Z,88.18
2022-08-27T20:08:36.130Z,75.80
2022-08-27T20:13:50.838Z,79.78
2022-08-27T20:18:58.400Z,96.78
2022-08-27T20:24:06.525Z,94.28
2022-08-27T20:29:11.432Z,88.32
2022-08-27T20:34:19.301Z,84.47
2022-08-27T20:39:24.815Z,99.00
2022-08-27T20:44:29.115Z,58.28
2022-08-27T20:49:35.378Z,71.93
2022-08-27T20:54:41.091Z,80.25
2022-08-27T21:05:11.794Z,78.90
2022-08-27T21:10:17.780Z,76.55
2022-08-27T21:15:21.755Z,72.97
2022-08-27T21:20:25.768Z,90.38
2022-08-27T21:25:31.478Z,70.22
2022-08-27T21:30:36.132Z,75.30
2022-08-27T21:35:40.108Z,69.80
2022-08-27T21:40:45.554Z,72.22
2022-08-27T21:45:49.555Z,66.50
2022-08-27T21:50:54.110Z,67.35
2022-08-27T21:55:59.547Z,67.95
2022-08-27T22:01:05.384Z,58.15
2022-08-27T22:06:11.379Z,69.55
2022-08-27T22:11:22.007Z,68.15
2022-08-27T22:16:29.169Z,64.40
2022-08-27T22:21:33.339Z,65.93
2022-08-27T22:26:38.799Z,64.28
2022-08-27T22:36:47.852Z,56.97
2022-08-27T22:41:53.248Z,65.18
2022-08-27T22:46:57.395Z,68.15
2022-08-27T22:52:01.744Z,69.70
2022-08-27T22:57:09.827Z,62.92
2022-08-27T23:02:14.861Z,72.47
2022-08-27T23:07:18.763Z,70.13
2022-08-27T23:12:24.354Z,58.40
2022-08-27T23:17:28.421Z,61.15
2022-08-27T23:22:32.408Z,67.15
2022-08-27T23:27:37.944Z,63.92
2022-08-27T23:32:46.332Z,61.63
2022-08-27T23:37:54.119Z,58.38
2022-08-27T23:42:59.647Z,67.22
2022-08-27T23:48:03.772Z,72.30
2022-08-27T23:53:08.198Z,47.47
2022-08-27T23:58:14.031Z,46.83
